Terminal Aerodrome Forecast
Issued by NWS

Home | Current Version | Previous Version | Graphics & Text | Print | Product List | Glossary On
Versions: 1 2 3 4 5 6 7 8 9 10 11 12 13 14 15
000
FTUS42 KMHX 211123
TAFPGV
TAF
KPGV 211123Z 2112/2212 25008KT P6SM SCT090
      TEMPO 2112/2114 BKN090
     FM212200 07004KT P6SM BKN060
     FM220500 03007KT 6SM -SHRA SCT020 BKN040
      AMD LTD TO CLD VIS AND WIND=

USA.gov is the U.S. government's official web portal to all federal, state and local government web resources and services.